createdAt,value
2023-01-09T00:01:50.157Z,54.87
2023-01-09T00:04:19.268Z,54.76
2023-01-09T00:06:53.846Z,55.11
2023-01-09T00:09:23.122Z,55.19
2023-01-09T00:11:52.226Z,55.12
2023-01-09T00:14:20.870Z,55.04
2023-01-09T00:16:51.300Z,54.92
2023-01-09T00:19:19.822Z,54.89
2023-01-09T00:21:48.394Z,54.94
2023-01-09T00:24:16.943Z,54.94
2023-01-09T00:26:45.493Z,54.89
2023-01-09T00:29:14.583Z,55.00
2023-01-09T00:31:43.058Z,54.92
2023-01-09T00:34:13.068Z,54.86
2023-01-09T00:36:41.590Z,55.01
2023-01-09T00:39:10.020Z,54.96
2023-01-09T00:41:41.794Z,54.87
2023-01-09T00:44:14.343Z,55.05
2023-01-09T00:46:48.663Z,54.96
2023-01-09T00:49:19.433Z,54.93
2023-01-09T00:51:48.457Z,55.07
2023-01-09T00:54:19.963Z,55.04
2023-01-09T00:56:49.710Z,55.01
2023-01-09T00:59:18.305Z,54.90
2023-01-09T01:01:46.938Z,54.96
2023-01-09T01:04:32.735Z,54.87
2023-01-09T01:07:20.181Z,54.92
2023-01-09T01:09:48.624Z,55.04
2023-01-09T01:12:17.171Z,54.86
2023-01-09T01:14:45.818Z,55.02
2023-01-09T01:17:14.239Z,55.05
2023-01-09T01:19:42.779Z,55.04
2023-01-09T01:22:12.581Z,55.05
2023-01-09T01:24:41.201Z,55.06
2023-01-09T01:27:09.618Z,55.07
2023-01-09T01:29:38.065Z,54.90
2023-01-09T01:32:06.541Z,54.95
2023-01-09T01:34:34.948Z,55.03
2023-01-09T01:37:03.505Z,55.00
2023-01-09T01:39:33.270Z,54.94
2023-01-09T01:42:01.784Z,54.98
2023-01-09T01:45:01.582Z,54.84
2023-01-09T01:47:35.993Z,55.05
2023-01-09T01:50:09.314Z,54.92
2023-01-09T01:52:38.732Z,55.00
2023-01-09T01:55:10.943Z,54.95
2023-01-09T01:57:43.860Z,55.00
2023-01-09T02:00:13.454Z,55.01
2023-01-09T02:02:47.214Z,54.96
2023-01-09T02:05:16.616Z,55.01
2023-01-09T02:07:45.009Z,54.86
2023-01-09T02:10:15.859Z,54.81
2023-01-09T02:12:44.379Z,54.83
2023-01-09T02:15:16.055Z,55.01
2023-01-09T02:18:21.100Z,54.86
2023-01-09T02:20:57.061Z,54.97
2023-01-09T02:24:01.862Z,54.87
2023-01-09T02:26:45.243Z,54.90
2023-01-09T02:29:40.953Z,54.97
2023-01-09T02:32:20.561Z,55.09
2023-01-09T02:34:59.591Z,54.95
2023-01-09T02:37:38.065Z,55.09
2023-01-09T02:40:16.973Z,55.02
2023-01-09T02:42:48.277Z,55.04
2023-01-09T02:45:17.143Z,55.11
2023-01-09T02:47:47.869Z,54.99
2023-01-09T02:50:20.980Z,54.91
2023-01-09T02:53:22.319Z,55.10
2023-01-09T02:56:01.405Z,55.15
2023-01-09T02:58:44.283Z,55.02
2023-01-09T03:01:26.525Z,55.16
2023-01-09T03:04:05.518Z,55.00
2023-01-09T03:06:44.292Z,55.08
2023-01-09T03:09:20.121Z,55.10
2023-01-09T03:11:52.136Z,55.22
2023-01-09T03:14:23.847Z,55.04
2023-01-09T03:16:59.389Z,55.03
2023-01-09T03:19:33.372Z,55.13
2023-01-09T03:22:02.225Z,55.17
2023-01-09T03:24:30.755Z,55.07
2023-01-09T03:26:59.242Z,55.00
2023-01-09T03:29:29.506Z,55.10
2023-01-09T03:31:58.108Z,55.01
2023-01-09T03:34:26.569Z,55.04
2023-01-09T03:36:56.406Z,54.93
2023-01-09T03:39:24.831Z,55.21
2023-01-09T03:41:53.307Z,55.07
2023-01-09T03:44:21.901Z,55.03
2023-01-09T03:46:50.444Z,55.03
2023-01-09T03:49:19.193Z,55.10
2023-01-09T03:51:47.689Z,55.07
2023-01-09T03:54:17.586Z,54.95
2023-01-09T03:56:46.029Z,55.00
2023-01-09T03:59:14.476Z,54.87
2023-01-09T04:01:43.000Z,54.78
2023-01-09T04:04:11.569Z,55.04
2023-01-09T04:06:40.039Z,55.00
2023-01-09T04:09:08.509Z,54.97
2023-01-09T04:11:38.331Z,54.96
2023-01-09T04:14:06.892Z,55.04
2023-01-09T04:16:35.386Z,55.14
2023-01-09T04:19:03.994Z,55.13
2023-01-09T04:21:32.474Z,55.33
2023-01-09T04:24:01.110Z,55.35
2023-01-09T04:26:29.810Z,55.25
2023-01-09T04:29:00.431Z,55.34
2023-01-09T04:31:29.030Z,55.41
2023-01-09T04:33:57.643Z,55.39
2023-01-09T04:36:26.178Z,55.31
2023-01-09T04:38:54.686Z,55.14
2023-01-09T04:41:48.978Z,55.05
2023-01-09T04:44:20.109Z,54.64
2023-01-09T04:46:48.963Z,54.39
2023-01-09T04:49:17.466Z,53.76
2023-01-09T04:51:46.026Z,52.88
2023-01-09T04:54:14.872Z,52.47
2023-01-09T04:56:43.620Z,52.50
2023-01-09T04:59:12.092Z,52.02
2023-01-09T05:01:42.148Z,51.68
2023-01-09T05:04:11.235Z,51.40
2023-01-09T05:06:39.797Z,51.44
2023-01-09T05:09:08.288Z,50.99
2023-01-09T05:11:36.744Z,50.62
2023-01-09T05:14:05.200Z,50.63
2023-01-09T05:16:33.955Z,50.45
2023-01-09T05:19:03.710Z,50.57
2023-01-09T05:21:32.142Z,50.42
2023-01-09T05:24:00.654Z,50.21
2023-01-09T05:26:29.186Z,50.11
2023-01-09T05:28:57.694Z,50.41
2023-01-09T05:31:27.390Z,50.03
2023-01-09T05:33:55.846Z,49.75
2023-01-09T05:36:25.954Z,50.26
2023-01-09T05:38:54.370Z,49.96
2023-01-09T05:41:24.253Z,50.03
2023-01-09T05:43:52.834Z,50.26
2023-01-09T05:46:21.585Z,49.92
2023-01-09T05:48:50.087Z,50.30
2023-01-09T05:51:18.862Z,49.99
2023-01-09T05:53:48.778Z,50.19
2023-01-09T05:56:17.444Z,50.34
2023-01-09T05:58:45.905Z,50.36
2023-01-09T06:01:14.408Z,50.34
2023-01-09T06:03:42.969Z,50.47
2023-01-09T06:06:11.442Z,50.37
2023-01-09T06:08:39.830Z,50.18
2023-01-09T06:11:09.604Z,50.26
2023-01-09T06:13:38.081Z,50.50
2023-01-09T06:16:07.760Z,50.22
2023-01-09T06:18:36.278Z,50.48
2023-01-09T06:21:05.036Z,50.75
2023-01-09T06:23:33.460Z,50.43
2023-01-09T06:26:02.243Z,51.33
2023-01-09T06:28:32.167Z,51.28
2023-01-09T06:31:00.648Z,51.53
2023-01-09T06:33:29.112Z,51.53
2023-01-09T06:35:57.585Z,51.47
2023-01-09T06:38:26.165Z,51.95
2023-01-09T06:40:54.648Z,51.76
2023-01-09T06:43:23.261Z,51.99
2023-01-09T06:45:53.205Z,52.16
2023-01-09T06:48:21.702Z,52.13
2023-01-09T06:50:50.175Z,52.64
2023-01-09T06:53:18.969Z,52.48
2023-01-09T06:55:47.811Z,52.47
2023-01-09T06:58:16.454Z,52.37
2023-01-09T07:00:45.204Z,52.45
2023-01-09T07:03:19.616Z,52.93
2023-01-09T07:05:48.185Z,52.43
2023-01-09T07:08:17.029Z,53.01
2023-01-09T07:10:46.090Z,52.56
2023-01-09T07:13:14.566Z,52.99
2023-01-09T07:15:43.122Z,52.88
2023-01-09T07:18:11.655Z,52.97
2023-01-09T07:20:41.663Z,53.09
2023-01-09T07:23:12.480Z,52.72
2023-01-09T07:25:41.191Z,52.82
2023-01-09T07:28:09.692Z,53.29
2023-01-09T07:30:38.141Z,53.10
2023-01-09T07:33:06.578Z,53.04
2023-01-09T07:35:35.121Z,53.30
2023-01-09T07:38:04.951Z,53.53
2023-01-09T07:40:33.445Z,53.22
2023-01-09T07:43:01.952Z,53.22
2023-01-09T07:45:30.363Z,53.27
2023-01-09T07:47:58.921Z,53.08
2023-01-09T07:50:27.417Z,52.95
2023-01-09T07:52:55.839Z,52.31
2023-01-09T07:55:25.661Z,50.82
2023-01-09T07:57:54.189Z,51.14
2023-01-09T08:00:23.189Z,48.93
2023-01-09T08:02:55.213Z,49.44
2023-01-09T08:05:23.895Z,49.08
2023-01-09T08:07:52.370Z,48.90
2023-01-09T08:10:21.208Z,47.32
2023-01-09T08:12:51.294Z,47.22
2023-01-09T08:15:19.975Z,46.70
2023-01-09T08:17:48.587Z,46.42
2023-01-09T08:20:18.598Z,45.92
2023-01-09T08:22:49.563Z,45.44
2023-01-09T08:25:18.960Z,45.34
2023-01-09T08:27:48.039Z,45.33
2023-01-09T08:30:19.209Z,44.75
2023-01-09T08:32:50.474Z,44.11
2023-01-09T08:35:19.327Z,43.85
2023-01-09T08:37:48.743Z,44.17
2023-01-09T08:40:18.021Z,43.52
2023-01-09T08:43:03.921Z,43.63
2023-01-09T08:45:51.765Z,43.39
2023-01-09T08:48:20.285Z,42.88
2023-01-09T08:50:48.785Z,42.92
2023-01-09T08:53:17.353Z,43.11
2023-01-09T08:55:45.814Z,43.03
2023-01-09T08:58:14.270Z,42.71
2023-01-09T09:00:44.113Z,43.13
2023-01-09T09:03:12.658Z,42.37
2023-01-09T09:05:41.200Z,41.80
2023-01-09T09:08:09.907Z,41.56
2023-01-09T09:10:38.395Z,42.26
2023-01-09T09:13:06.843Z,41.68
2023-01-09T09:15:38.029Z,42.08
2023-01-09T09:18:09.154Z,42.08
2023-01-09T09:20:39.105Z,41.79
2023-01-09T09:23:08.692Z,42.85
2023-01-09T09:25:38.468Z,42.99
2023-01-09T09:28:08.022Z,43.23
2023-01-09T09:30:36.599Z,43.51
2023-01-09T09:33:05.861Z,43.03
2023-01-09T09:35:35.929Z,43.41
2023-01-09T09:38:06.166Z,43.63
2023-01-09T09:41:07.161Z,43.81
2023-01-09T09:44:10.051Z,44.47
2023-01-09T09:46:44.650Z,44.90
2023-01-09T09:49:18.498Z,45.01
2023-01-09T09:52:05.154Z,46.06
2023-01-09T09:54:37.926Z,46.34
2023-01-09T09:57:11.621Z,46.48
2023-01-09T09:59:43.021Z,46.65
2023-01-09T10:02:26.759Z,46.81
2023-01-09T10:05:01.404Z,47.01
2023-01-09T10:07:41.704Z,47.39
2023-01-09T10:10:18.306Z,47.82
2023-01-09T10:12:53.379Z,48.04
2023-01-09T10:15:31.911Z,48.17
2023-01-09T10:18:12.981Z,48.18
2023-01-09T10:20:51.932Z,48.34
2023-01-09T10:23:53.346Z,48.29
2023-01-09T10:26:28.542Z,48.79
2023-01-09T10:29:21.406Z,48.62
2023-01-09T10:32:01.660Z,48.81
2023-01-09T10:34:46.807Z,48.79
2023-01-09T10:37:19.160Z,48.90
2023-01-09T10:39:53.636Z,49.10
2023-01-09T10:42:30.588Z,49.34
2023-01-09T10:45:04.676Z,49.24
2023-01-09T10:47:34.333Z,49.36
2023-01-09T10:50:15.567Z,49.35
2023-01-09T10:52:44.637Z,49.22
2023-01-09T10:55:20.312Z,49.31
2023-01-09T10:57:54.124Z,49.75
2023-01-09T11:00:25.150Z,49.64
2023-01-09T11:02:54.709Z,49.68
2023-01-09T11:05:25.515Z,49.67
2023-01-09T11:07:58.276Z,49.74
2023-01-09T11:10:46.464Z,49.59
2023-01-09T11:13:19.694Z,49.57
2023-01-09T11:16:00.980Z,49.66
2023-01-09T11:18:29.587Z,49.84
2023-01-09T11:21:12.922Z,49.67
2023-01-09T11:23:41.423Z,49.97
2023-01-09T11:26:24.028Z,49.80
2023-01-09T11:29:11.869Z,49.93
2023-01-09T11:31:41.717Z,50.06
2023-01-09T11:34:17.717Z,49.91
2023-01-09T11:36:47.284Z,49.93
2023-01-09T11:39:24.714Z,49.65
2023-01-09T11:41:56.753Z,49.83
2023-01-09T11:44:26.350Z,49.65
2023-01-09T11:46:54.877Z,49.66
2023-01-09T11:49:25.384Z,49.63
2023-01-09T11:52:15.875Z,49.36
2023-01-09T11:54:50.408Z,49.35
2023-01-09T11:57:22.350Z,49.38
2023-01-09T11:59:51.457Z,49.46
2023-01-09T12:02:45.289Z,49.50
2023-01-09T12:05:22.858Z,50.22
2023-01-09T12:08:13.194Z,50.61
2023-01-09T12:11:00.016Z,50.60
2023-01-09T12:13:46.845Z,50.57
2023-01-09T12:16:25.427Z,50.60
2023-01-09T12:19:06.591Z,50.65
2023-01-09T12:21:36.594Z,50.77
2023-01-09T12:24:36.318Z,50.76
2023-01-09T12:27:20.093Z,50.78
2023-01-09T12:30:05.363Z,50.82
2023-01-09T12:32:50.670Z,50.85
2023-01-09T12:35:31.894Z,51.09
2023-01-09T12:38:21.870Z,51.12
2023-01-09T12:41:12.658Z,50.99
2023-01-09T12:43:50.145Z,51.08
2023-01-09T12:46:22.042Z,51.31
2023-01-09T12:49:22.145Z,51.47
2023-01-09T12:51:55.026Z,51.33
2023-01-09T12:54:32.572Z,51.65
2023-01-09T12:57:04.365Z,51.74
2023-01-09T12:59:38.042Z,51.51
2023-01-09T13:02:18.322Z,51.55
2023-01-09T13:04:53.158Z,51.51
2023-01-09T13:07:25.368Z,51.78
2023-01-09T13:09:59.718Z,51.84
2023-01-09T13:12:31.579Z,51.65
2023-01-09T13:15:03.763Z,51.73
2023-01-09T13:17:39.884Z,51.48
2023-01-09T13:20:21.026Z,51.89
2023-01-09T13:22:52.370Z,51.79
2023-01-09T13:25:36.173Z,51.93
2023-01-09T13:28:12.977Z,51.77
2023-01-09T13:30:55.159Z,52.06
2023-01-09T13:33:29.512Z,52.37
2023-01-09T13:35:59.748Z,52.08
2023-01-09T13:38:30.650Z,52.04
2023-01-09T13:41:26.838Z,51.94
2023-01-09T13:43:58.036Z,51.75
2023-01-09T13:46:36.650Z,52.11
2023-01-09T13:49:08.751Z,52.03
2023-01-09T13:51:58.209Z,51.91
2023-01-09T13:55:01.841Z,52.14
2023-01-09T13:57:33.069Z,52.21
2023-01-09T14:00:34.673Z,52.35
2023-01-09T14:03:17.779Z,52.17
2023-01-09T14:06:17.468Z,51.86
2023-01-09T14:08:48.784Z,51.70
2023-01-09T14:11:23.015Z,51.76
2023-01-09T14:14:02.710Z,51.43
2023-01-09T14:16:32.704Z,51.80
2023-01-09T14:19:10.089Z,51.23
2023-01-09T14:21:50.527Z,50.93
2023-01-09T14:24:23.791Z,49.93
2023-01-09T14:26:57.099Z,49.82
2023-01-09T14:30:17.391Z,49.48
2023-01-09T14:32:46.913Z,49.29
2023-01-09T14:35:20.674Z,49.46
2023-01-09T14:38:02.679Z,49.89
2023-01-09T14:40:32.340Z,50.06
2023-01-09T14:43:13.845Z,49.78
2023-01-09T14:45:49.962Z,49.75
2023-01-09T14:48:19.429Z,49.33
2023-01-09T14:50:55.252Z,49.35
2023-01-09T14:53:27.565Z,49.08
2023-01-09T14:55:57.945Z,49.16
2023-01-09T14:58:29.171Z,47.21
2023-01-09T15:01:01.309Z,47.32
2023-01-09T15:03:35.726Z,46.48
2023-01-09T15:06:05.015Z,46.81
2023-01-09T15:08:34.922Z,46.51
2023-01-09T15:11:03.988Z,44.12
2023-01-09T15:13:36.096Z,44.16
2023-01-09T15:16:06.651Z,44.69
2023-01-09T15:18:42.825Z,45.20
2023-01-09T15:21:20.740Z,45.64
2023-01-09T15:23:50.992Z,46.39
2023-01-09T15:26:26.868Z,46.31
2023-01-09T15:29:02.419Z,46.68
2023-01-09T15:31:31.343Z,46.66
2023-01-09T15:33:59.844Z,46.81
2023-01-09T15:36:30.906Z,46.64
2023-01-09T15:39:01.397Z,46.92
2023-01-09T15:41:49.278Z,47.20
2023-01-09T15:44:21.930Z,47.08
2023-01-09T15:46:51.908Z,47.23
2023-01-09T15:49:20.815Z,47.12
2023-01-09T15:51:50.469Z,47.12
2023-01-09T15:54:29.525Z,47.47
2023-01-09T15:57:34.033Z,47.43
2023-01-09T16:00:45.471Z,47.40
2023-01-09T16:03:23.495Z,47.57
2023-01-09T16:05:57.882Z,47.53
2023-01-09T16:08:30.069Z,47.70
2023-01-09T16:11:04.315Z,47.40
2023-01-09T16:13:38.619Z,47.72
2023-01-09T16:16:08.197Z,47.60
2023-01-09T16:18:38.577Z,47.72
2023-01-09T16:21:32.729Z,47.80
2023-01-09T16:24:04.261Z,47.49
2023-01-09T16:26:34.986Z,47.51
2023-01-09T16:29:29.483Z,47.48
2023-01-09T16:32:02.218Z,47.72
2023-01-09T16:34:31.857Z,47.66
2023-01-09T16:37:02.800Z,47.37
2023-01-09T16:39:31.512Z,47.23
2023-01-09T16:42:19.209Z,47.11
2023-01-09T16:44:47.672Z,47.26
2023-01-09T16:47:16.212Z,46.76
2023-01-09T16:49:44.743Z,46.77
2023-01-09T16:52:16.908Z,46.53
2023-01-09T16:54:46.815Z,46.58
2023-01-09T16:57:18.787Z,46.55
2023-01-09T16:59:47.619Z,46.31
2023-01-09T17:02:19.082Z,46.55
2023-01-09T17:04:47.948Z,46.37
2023-01-09T17:07:17.843Z,46.88
2023-01-09T17:09:47.567Z,46.87
2023-01-09T17:12:19.980Z,46.68
2023-01-09T17:14:48.719Z,44.96
2023-01-09T17:17:17.813Z,44.81
2023-01-09T17:19:46.729Z,45.30
2023-01-09T17:22:15.776Z,45.16
2023-01-09T17:25:01.767Z,45.51
2023-01-09T17:27:52.069Z,45.73
2023-01-09T17:30:21.340Z,46.38
2023-01-09T17:32:50.306Z,46.07
2023-01-09T17:35:18.888Z,46.31
2023-01-09T17:37:47.373Z,46.43
2023-01-09T17:40:21.379Z,46.71
2023-01-09T17:42:51.085Z,46.27
2023-01-09T17:45:19.602Z,46.38
2023-01-09T17:47:48.092Z,46.00
2023-01-09T17:50:20.429Z,45.97
2023-01-09T17:52:49.346Z,46.83
2023-01-09T17:55:17.996Z,46.27
2023-01-09T17:57:46.528Z,46.81
2023-01-09T18:00:26.543Z,46.94
2023-01-09T18:02:55.361Z,47.08
2023-01-09T18:05:25.017Z,47.59
2023-01-09T18:07:53.466Z,47.74
2023-01-09T18:10:24.466Z,47.47
2023-01-09T18:12:55.463Z,47.68
2023-01-09T18:15:25.357Z,47.89
2023-01-09T18:17:53.932Z,48.09
2023-01-09T18:20:22.443Z,47.98
2023-01-09T18:22:51.568Z,48.35
2023-01-09T18:25:20.177Z,48.63
2023-01-09T18:27:51.694Z,47.55
2023-01-09T18:30:20.514Z,47.00
2023-01-09T18:32:50.340Z,46.38
2023-01-09T18:35:18.923Z,46.44
2023-01-09T18:37:48.173Z,46.19
2023-01-09T18:40:17.002Z,46.21
2023-01-09T18:42:46.544Z,46.11
2023-01-09T18:45:15.196Z,46.58
2023-01-09T18:47:43.738Z,46.83
2023-01-09T18:50:13.976Z,46.46
2023-01-09T18:52:43.400Z,47.24
2023-01-09T18:55:11.964Z,47.71
2023-01-09T18:57:40.409Z,47.73
2023-01-09T19:00:11.592Z,48.03
2023-01-09T19:02:40.228Z,47.96
2023-01-09T19:05:09.370Z,48.04
2023-01-09T19:07:39.277Z,48.04
2023-01-09T19:10:09.117Z,48.46
2023-01-09T19:12:37.789Z,48.05
2023-01-09T19:15:10.889Z,48.26
2023-01-09T19:17:39.883Z,48.67
2023-01-09T19:20:09.728Z,48.71
2023-01-09T19:22:39.579Z,48.72
2023-01-09T19:25:08.693Z,48.81
2023-01-09T19:27:37.351Z,48.85
2023-01-09T19:30:07.255Z,48.55
2023-01-09T19:32:37.310Z,48.70
2023-01-09T19:35:06.608Z,48.75
2023-01-09T19:37:37.118Z,48.72
2023-01-09T19:40:08.046Z,49.11
2023-01-09T19:42:36.525Z,49.01
2023-01-09T19:45:05.837Z,49.12
2023-01-09T19:47:36.009Z,48.75
2023-01-09T19:50:05.709Z,49.23
2023-01-09T19:52:34.386Z,49.28
2023-01-09T19:55:02.896Z,49.20
2023-01-09T19:57:32.806Z,49.45
2023-01-09T20:00:01.279Z,49.27
2023-01-09T20:02:29.896Z,49.02
2023-01-09T20:04:58.444Z,49.56
2023-01-09T20:07:26.939Z,49.54
2023-01-09T20:09:56.053Z,49.60
2023-01-09T20:12:24.515Z,50.08
2023-01-09T20:14:54.392Z,50.23
2023-01-09T20:17:22.842Z,50.18
2023-01-09T20:19:51.538Z,50.18
2023-01-09T20:22:19.994Z,50.17
2023-01-09T20:24:48.405Z,50.22
2023-01-09T20:27:16.887Z,50.37
2023-01-09T20:29:45.401Z,50.36
2023-01-09T20:32:15.233Z,50.11
2023-01-09T20:34:43.782Z,49.96
2023-01-09T20:37:12.624Z,49.32
2023-01-09T20:39:41.177Z,49.28
2023-01-09T20:42:09.620Z,49.35
2023-01-09T20:44:38.049Z,49.10
2023-01-09T20:47:06.519Z,49.23
2023-01-09T20:49:36.305Z,49.20
2023-01-09T20:52:04.992Z,49.24
2023-01-09T20:54:33.460Z,49.12
2023-01-09T20:57:01.858Z,49.11
2023-01-09T20:59:30.390Z,49.35
2023-01-09T21:01:58.908Z,49.24
2023-01-09T21:04:29.510Z,49.21
2023-01-09T21:06:59.456Z,49.44
2023-01-09T21:09:29.171Z,49.45
2023-01-09T21:11:57.767Z,49.33
2023-01-09T21:14:26.229Z,49.54
2023-01-09T21:16:55.409Z,49.47
2023-01-09T21:19:24.139Z,49.40
2023-01-09T21:21:53.594Z,49.38
2023-01-09T21:24:23.570Z,49.38
2023-01-09T21:26:52.089Z,49.41
2023-01-09T21:29:20.562Z,49.47
2023-01-09T21:31:49.050Z,49.50
2023-01-09T21:34:20.530Z,49.47
2023-01-09T21:36:49.649Z,49.47
2023-01-09T21:39:19.538Z,49.55
2023-01-09T21:42:07.057Z,49.54
2023-01-09T21:44:53.404Z,49.47
2023-01-09T21:47:22.797Z,49.46
2023-01-09T21:49:51.296Z,49.26
2023-01-09T21:52:20.978Z,49.51
2023-01-09T21:54:49.434Z,49.34
2023-01-09T21:57:19.333Z,49.52
2023-01-09T21:59:47.905Z,49.42
2023-01-09T22:02:16.760Z,49.32
2023-01-09T22:04:48.825Z,49.41
2023-01-09T22:07:17.501Z,49.34
2023-01-09T22:09:46.016Z,49.40
2023-01-09T22:12:14.485Z,49.38
2023-01-09T22:14:44.437Z,49.47
2023-01-09T22:17:12.887Z,49.56
2023-01-09T22:19:41.332Z,49.45
2023-01-09T22:22:09.776Z,49.50
2023-01-09T22:24:38.352Z,49.28
2023-01-09T22:27:07.036Z,49.27
2023-01-09T22:29:35.555Z,49.32
2023-01-09T22:32:05.745Z,49.19
2023-01-09T22:34:34.259Z,49.48
2023-01-09T22:37:03.137Z,49.40
2023-01-09T22:39:31.685Z,49.32
2023-01-09T22:42:00.093Z,49.27
2023-01-09T22:44:28.485Z,49.45
2023-01-09T22:46:58.317Z,49.45
2023-01-09T22:49:30.365Z,49.35
2023-01-09T22:52:01.909Z,49.40
2023-01-09T22:54:30.353Z,49.35
2023-01-09T22:56:58.881Z,49.35
2023-01-09T22:59:27.842Z,49.23
2023-01-09T23:01:57.710Z,49.26
2023-01-09T23:04:26.267Z,49.27
2023-01-09T23:06:56.061Z,49.48
2023-01-09T23:09:25.142Z,49.56
2023-01-09T23:12:06.109Z,49.36
2023-01-09T23:14:37.145Z,49.52
2023-01-09T23:17:06.757Z,49.31
2023-01-09T23:19:35.466Z,49.37
2023-01-09T23:22:06.145Z,49.43
2023-01-09T23:24:35.029Z,49.35
2023-01-09T23:27:04.301Z,49.28
2023-01-09T23:29:32.824Z,49.39
2023-01-09T23:32:01.406Z,49.32
2023-01-09T23:34:29.893Z,49.40
2023-01-09T23:36:58.304Z,49.28
2023-01-09T23:39:28.146Z,49.37
2023-01-09T23:42:13.890Z,49.43
2023-01-09T23:44:42.301Z,49.35
2023-01-09T23:47:10.716Z,49.41
2023-01-09T23:49:39.573Z,49.23
2023-01-09T23:52:08.694Z,49.32
2023-01-09T23:54:38.560Z,49.39
2023-01-09T23:57:07.028Z,49.26
2023-01-09T23:59:35.396Z,49.16
